Time;durP1;ratioP1;P1;durP2;ratioP2;P2;SDS_P1;SDS_P2;PMS_P1;PMS_P2;Temp;Humidity;BMP_temperature;BMP_pressure;BME280_temperature;BME280_humidity;BME280_pressure;Samples;Min_cycle;Max_cycle;Signal;HPM_P1;HPM_P2
2023/08/03 00:02:02;;;;;;;4.95;4.70;;;;;;;16.22;100.00;98714.31;6201944;23;20573;-71
2023/08/03 00:04:29;;;;;;;5.00;4.80;;;;;;;16.31;100.00;98738.97;6205223;23;20087;-70
2023/08/03 00:06:55;;;;;;;4.85;4.65;;;;;;;16.31;100.00;98737.13;6197256;23;20040;-71
2023/08/03 00:09:23;;;;;;;4.90;4.70;;;;;;;16.40;100.00;98740.63;6204144;23;20036;-71
2023/08/03 00:11:49;;;;;;;4.90;4.70;;;;;;;16.42;100.00;98732.53;6206426;23;20031;-72
2023/08/03 00:14:15;;;;;;;5.40;5.10;;;;;;;15.99;100.00;98660.38;6199758;23;20028;-71
2023/08/03 00:16:42;;;;;;;5.10;4.80;;;;;;;16.45;100.00;98742.75;6174549;23;20399;-71
2023/08/03 00:19:08;;;;;;;5.35;5.00;;;;;;;16.26;100.00;98691.81;6180996;23;20027;-71
2023/08/03 00:21:34;;;;;;;4.82;4.60;;;;;;;16.46;100.00;98733.84;6176238;23;20012;-71
2023/08/03 00:24:01;;;;;;;5.00;4.80;;;;;;;16.46;100.00;98739.13;6199057;23;20740;-70
2023/08/03 00:26:27;;;;;;;5.10;4.90;;;;;;;15.76;100.00;98613.44;6173612;23;20008;-71
2023/08/03 00:28:54;;;;;;;4.90;4.60;;;;;;;16.48;100.00;98730.03;6201228;23;20020;-70
2023/08/03 00:31:20;;;;;;;5.50;5.10;;;;;;;16.34;100.00;98720.94;6168936;23;20586;-71
2023/08/03 00:33:46;;;;;;;5.00;4.80;;;;;;;16.26;100.00;98722.75;6185929;23;20050;-71
2023/08/03 00:36:13;;;;;;;4.93;4.72;;;;;;;16.48;100.00;98774.22;6182127;23;20012;-71
2023/08/03 00:38:39;;;;;;;4.80;4.60;;;;;;;16.48;100.00;98764.44;6203293;23;20030;-71
2023/08/03 00:41:06;;;;;;;5.07;4.85;;;;;;;16.43;100.00;98772.03;6185681;23;20020;-71
2023/08/03 00:43:32;;;;;;;5.22;4.93;;;;;;;16.45;100.00;98782.47;6199434;23;20024;-71
2023/08/03 00:45:58;;;;;;;5.07;4.78;;;;;;;16.22;100.00;98745.25;6185279;23;20488;-71
2023/08/03 00:48:25;;;;;;;5.30;5.00;;;;;;;16.24;100.00;98775.84;6202996;23;20021;-71
2023/08/03 00:50:52;;;;;;;5.22;5.00;;;;;;;16.40;100.00;98798.88;6172157;23;20584;-71
2023/08/03 00:53:19;;;;;;;5.20;5.00;;;;;;;16.46;100.00;98797.38;6186847;23;20365;-71
2023/08/03 00:55:45;;;;;;;5.10;4.90;;;;;;;16.11;100.00;98727.84;6203376;23;20020;-70
2023/08/03 00:58:11;;;;;;;4.85;4.65;;;;;;;16.36;100.00;98768.41;6198274;23;20039;-70
2023/08/03 01:00:38;;;;;;;7.15;4.72;;;;;;;16.47;100.00;98767.25;6173427;23;20025;-71
2023/08/03 01:03:04;;;;;;;5.07;4.78;;;;;;;15.91;100.00;98688.47;6201962;23;20024;-71
2023/08/03 01:05:32;;;;;;;5.85;5.30;;;;;;;16.23;100.00;98747.72;6200023;23;20450;-71
2023/08/03 01:07:59;;;;;;;5.07;4.78;;;;;;;16.18;100.00;98757.97;6203186;23;20554;-70
2023/08/03 01:10:27;;;;;;;5.28;4.97;;;;;;;16.38;100.00;98773.53;6202402;23;20020;-70
2023/08/03 01:12:55;;;;;;;5.10;4.80;;;;;;;16.51;100.00;98816.25;6198456;23;20453;-71
2023/08/03 01:15:22;;;;;;;5.60;5.30;;;;;;;16.24;100.00;98783.78;6142382;23;20348;-71
2023/08/03 01:17:49;;;;;;;5.07;4.78;;;;;;;16.49;100.00;98823.53;6201209;23;20679;-70
2023/08/03 01:20:18;;;;;;;4.85;4.65;;;;;;;16.00;100.00;98749.34;6150590;23;20016;-70
2023/08/03 01:22:45;;;;;;;5.10;4.80;;;;;;;16.46;100.00;98818.56;6195521;23;20098;-70
2023/08/03 01:25:12;;;;;;;5.20;4.88;;;;;;;16.49;100.00;98821.69;6183643;23;20080;-71
2023/08/03 01:27:38;;;;;;;5.22;4.90;;;;;;;16.60;100.00;98844.41;6175654;23;20031;-70
2023/08/03 01:30:05;;;;;;;5.00;4.80;;;;;;;16.32;100.00;98781.16;6171440;23;20608;-71
2023/08/03 01:32:32;;;;;;;5.80;5.25;;;;;;;15.81;100.00;98746.00;6177098;23;20026;-70
2023/08/03 01:34:59;;;;;;;5.15;4.85;;;;;;;16.17;100.00;98784.59;6200403;23;20075;-71
2023/08/03 01:37:26;;;;;;;5.00;4.80;;;;;;;16.42;100.00;98851.66;6154482;23;21159;-70
2023/08/03 01:39:52;;;;;;;4.88;4.68;;;;;;;16.31;100.00;98823.66;6202532;23;20085;-70
2023/08/03 01:42:19;;;;;;;5.13;4.93;;;;;;;16.41;100.00;98864.03;6175867;23;20096;-70
2023/08/03 01:44:46;;;;;;;4.90;4.70;;;;;;;16.04;100.00;98836.19;6199963;23;20486;-70
2023/08/03 01:47:12;;;;;;;4.90;4.60;;;;;;;16.06;100.00;98854.56;6199540;23;20026;-71
2023/08/03 01:49:38;;;;;;;5.13;4.72;;;;;;;16.29;100.00;98897.94;6199259;23;20148;-70
2023/08/03 01:52:05;;;;;;;5.05;4.85;;;;;;;16.07;100.00;98875.53;6199209;23;20414;-72
2023/08/03 01:54:31;;;;;;;5.35;5.05;;;;;;;15.93;100.00;98861.09;6197933;23;20079;-71
2023/08/03 01:56:58;;;;;;;5.00;4.80;;;;;;;16.29;100.00;98919.13;6171215;23;20079;-71
2023/08/03 01:59:24;;;;;;;5.25;4.95;;;;;;;16.34;100.00;98894.81;6200845;23;20020;-70
2023/08/03 02:01:51;;;;;;;5.00;4.80;;;;;;;16.38;100.00;98905.91;6184884;23;20091;-70
2023/08/03 02:04:17;;;;;;;4.95;4.75;;;;;;;16.38;100.00;98900.59;6174724;23;20578;-70
2023/08/03 02:06:47;;;;;;;5.35;5.03;;;;;;;15.16;100.00;98710.38;6195476;23;20628;-71
2023/08/03 02:09:14;;;;;;;5.40;5.07;;;;;;;16.25;100.00;98880.72;6202800;23;20038;-71
2023/08/03 02:11:40;;;;;;;5.38;4.97;;;;;;;16.34;100.00;98905.41;6199626;23;20079;-71
2023/08/03 02:14:07;;;;;;;5.72;5.15;;;;;;;16.34;100.00;98903.59;6200893;23;20044;-71
2023/08/03 02:16:33;;;;;;;5.40;5.18;;;;;;;15.38;100.00;98739.88;6171423;23;20618;-71
2023/08/03 02:19:00;;;;;;;5.32;5.00;;;;;;;16.39;100.00;98886.38;6199172;23;20016;-70
2023/08/03 02:21:26;;;;;;;5.18;4.88;;;;;;;15.41;100.00;98734.25;6199788;23;20023;-69
2023/08/03 02:23:53;;;;;;;5.28;4.78;;;;;;;15.99;100.00;98849.06;6197957;23;20425;-69
2023/08/03 02:26:20;;;;;;;9.27;4.95;;;;;;;16.06;100.00;98867.78;6192851;23;20073;-70
2023/08/03 02:28:46;;;;;;;4.80;4.60;;;;;;;15.87;100.00;98822.06;6202652;23;20131;-69
2023/08/03 02:31:13;;;;;;;5.10;4.80;;;;;;;15.31;100.00;98741.50;6170915;23;20800;-70
2023/08/03 02:33:39;;;;;;;5.05;4.85;;;;;;;16.35;100.00;98910.53;6180418;23;20032;-70
2023/08/03 02:36:05;;;;;;;5.00;4.80;;;;;;;16.01;100.00;98836.50;6202708;23;20027;-71
2023/08/03 02:38:32;;;;;;;13.38;5.35;;;;;;;16.40;100.00;98909.22;6199114;23;20674;-70
2023/08/03 02:40:58;;;;;;;5.07;4.88;;;;;;;16.34;100.00;98895.66;6172253;23;20087;-69
2023/08/03 02:43:27;;;;;;;5.25;4.82;;;;;;;15.92;100.00;98830.34;6195245;23;20079;-70
2023/08/03 02:45:54;;;;;;;5.35;5.00;;;;;;;15.88;100.00;98839.59;6200100;23;20110;-70
2023/08/03 02:48:20;;;;;;;5.50;5.03;;;;;;;15.84;100.00;98846.19;6183521;23;20091;-70
2023/08/03 02:50:47;;;;;;;4.97;4.78;;;;;;;16.13;100.00;98908.47;6197117;23;20664;-70
2023/08/03 02:53:13;;;;;;;5.20;4.90;;;;;;;16.17;100.00;98930.16;6155190;23;20097;-70
2023/08/03 02:55:40;;;;;;;5.25;4.95;;;;;;;16.12;100.00;98931.47;6198377;23;20087;-71
2023/08/03 02:58:06;;;;;;;5.00;4.80;;;;;;;16.18;100.00;98932.66;6143491;23;20024;-70
2023/08/03 03:00:32;;;;;;;5.55;5.25;;;;;;;16.07;100.00;98919.69;6202674;23;20020;-71
2023/08/03 03:02:59;;;;;;;4.97;4.78;;;;;;;15.70;100.00;98875.84;6174837;23;20024;-70
2023/08/03 03:05:25;;;;;;;5.38;5.10;;;;;;;15.75;100.00;98906.19;6198741;23;20055;-70
2023/08/03 03:07:52;;;;;;;4.90;4.60;;;;;;;15.68;100.00;98888.41;6200640;23;20050;-70
2023/08/03 03:10:18;;;;;;;7.53;5.10;;;;;;;15.60;100.00;98875.97;6193295;23;20008;-70
2023/08/03 03:12:45;;;;;;;5.22;4.93;;;;;;;16.00;100.00;98939.84;6146121;23;20024;-71
2023/08/03 03:15:11;;;;;;;5.13;4.93;;;;;;;15.53;100.00;98886.31;6171075;23;20012;-72
2023/08/03 03:17:40;;;;;;;5.15;4.75;;;;;;;15.88;100.00;98944.59;6197450;23;20106;-70
2023/08/03 03:20:07;;;;;;;4.80;4.60;;;;;;;15.88;100.00;98957.81;6177088;23;20486;-70
2023/08/03 03:22:35;;;;;;;5.00;4.80;;;;;;;15.72;100.00;98937.34;6149411;23;20553;-70
2023/08/03 03:25:05;;;;;;;4.75;4.55;;;;;;;15.86;100.00;98980.97;6195436;23;20514;-70
2023/08/03 03:27:31;;;;;;;5.10;4.90;;;;;;;15.85;100.00;98971.34;6155607;23;20479;-70
2023/08/03 03:29:57;;;;;;;4.82;4.63;;;;;;;15.40;100.00;98904.44;6170451;23;20024;-70
2023/08/03 03:32:24;;;;;;;4.95;4.68;;;;;;;15.67;100.00;98963.44;6200763;23;20027;-70
2023/08/03 03:34:50;;;;;;;4.97;4.78;;;;;;;15.42;100.00;98934.19;6197503;23;20052;-70
2023/08/03 03:37:17;;;;;;;5.10;4.80;;;;;;;15.71;100.00;98988.56;6201500;23;20104;-71
2023/08/03 03:39:43;;;;;;;4.97;4.78;;;;;;;15.66;100.00;98981.13;6200027;23;20247;-71
2023/08/03 03:42:10;;;;;;;5.22;5.03;;;;;;;15.69;100.00;98990.56;6198486;23;20521;-70
2023/08/03 03:44:36;;;;;;;5.10;4.90;;;;;;;15.74;100.00;98994.44;6203593;23;20038;-69
2023/08/03 03:47:03;;;;;;;5.32;5.00;;;;;;;15.77;100.00;98984.53;6181335;23;20351;-70
2023/08/03 03:49:30;;;;;;;5.30;5.00;;;;;;;14.95;100.00;98848.16;6205106;23;20457;-69
2023/08/03 03:51:56;;;;;;;5.15;4.90;;;;;;;15.39;100.00;98923.09;6205269;23;20094;-69
2023/08/03 03:54:23;;;;;;;5.10;4.80;;;;;;;15.55;100.00;98949.63;6203186;23;20183;-70
2023/08/03 03:56:49;;;;;;;4.97;4.78;;;;;;;15.82;100.00;99000.78;6201937;23;20024;-71
2023/08/03 03:59:15;;;;;;;5.60;5.00;;;;;;;15.88;100.00;98995.69;6178497;23;20076;-74
2023/08/03 04:01:42;;;;;;;5.03;4.82;;;;;;;15.90;100.00;99003.47;6204609;23;20030;-71
2023/08/03 04:04:08;;;;;;;5.30;4.90;;;;;;;15.47;100.00;98918.69;6160073;23;20077;-71
2023/08/03 04:06:35;;;;;;;5.13;4.82;;;;;;;15.97;100.00;99006.31;6201339;23;20020;-72
2023/08/03 04:09:01;;;;;;;5.18;4.90;;;;;;;15.82;100.00;98990.19;6176154;23;20016;-70
2023/08/03 04:11:28;;;;;;;4.93;4.72;;;;;;;15.87;100.00;98988.72;6199518;23;20030;-70
2023/08/03 04:13:54;;;;;;;4.75;4.55;;;;;;;16.01;100.00;99020.88;6200756;23;20055;-69
2023/08/03 04:16:22;;;;;;;5.00;4.70;;;;;;;16.04;100.00;99023.22;6179134;23;20024;-69
2023/08/03 04:18:48;;;;;;;4.90;4.70;;;;;;;16.05;100.00;99017.75;6200653;23;20020;-70
2023/08/03 04:21:15;;;;;;;5.00;4.80;;;;;;;16.07;100.00;99015.78;6200858;23;20124;-70
2023/08/03 04:23:41;;;;;;;5.18;4.90;;;;;;;16.04;100.00;99010.81;6202292;23;20057;-70
2023/08/03 04:26:08;;;;;;;5.07;4.88;;;;;;;15.86;100.00;98970.38;6173198;23;20084;-71
2023/08/03 04:28:35;;;;;;;5.20;4.90;;;;;;;16.07;100.00;99004.38;6204509;23;20027;-70
2023/08/03 04:31:01;;;;;;;4.95;4.68;;;;;;;15.78;100.00;98965.84;6188192;23;20020;-71
2023/08/03 04:33:28;;;;;;;4.65;4.45;;;;;;;15.99;100.00;99004.34;6202136;23;20518;-70
2023/08/03 04:35:54;;;;;;;4.70;4.50;;;;;;;16.03;100.00;99003.84;6200850;23;20016;-70
2023/08/03 04:38:20;;;;;;;5.22;4.88;;;;;;;15.82;100.00;98966.38;6173880;23;20083;-70
2023/08/03 04:40:47;;;;;;;5.00;4.80;;;;;;;16.05;100.00;99006.34;6198901;23;20016;-70
2023/08/03 04:43:13;;;;;;;4.80;4.60;;;;;;;15.84;100.00;98957.28;6168017;23;20035;-69
2023/08/03 04:45:42;;;;;;;5.10;4.90;;;;;;;16.18;100.00;98993.53;6199560;23;20557;-70
2023/08/03 04:48:08;;;;;;;4.97;4.68;;;;;;;16.18;100.00;99001.47;6203347;23;20075;-70
2023/08/03 04:50:35;;;;;;;5.13;4.93;;;;;;;15.75;100.00;98931.78;6198214;23;20022;-70
2023/08/03 04:53:02;;;;;;;5.03;4.72;;;;;;;15.84;100.00;98959.13;6198004;23;20518;-72
2023/08/03 04:55:28;;;;;;;4.68;4.47;;;;;;;16.25;100.00;99009.59;6196470;23;20699;-71
2023/08/03 04:57:54;;;;;;;4.80;4.60;;;;;;;15.97;100.00;98961.31;6197655;23;20031;-70
2023/08/03 05:00:21;;;;;;;5.28;4.82;;;;;;;16.33;100.00;99013.09;6183926;23;20451;-70
2023/08/03 05:02:48;;;;;;;5.20;5.00;;;;;;;16.12;100.00;98973.00;6200609;23;20024;-70
2023/08/03 05:05:15;;;;;;;4.80;4.60;;;;;;;16.47;100.00;99005.56;6194471;23;20061;-70
2023/08/03 05:07:41;;;;;;;5.18;4.90;;;;;;;16.02;100.00;98936.06;6197992;23;20058;-70
2023/08/03 05:10:08;;;;;;;4.88;4.65;;;;;;;16.67;100.00;99001.66;6199738;23;20649;-70
2023/08/03 05:12:34;;;;;;;5.00;4.80;;;;;;;16.19;100.00;98904.38;6196631;23;20059;-70
2023/08/03 05:15:01;;;;;;;5.10;4.90;;;;;;;16.75;100.00;98971.72;6200691;23;20043;-70
2023/08/03 05:17:27;;;;;;;5.00;4.80;;;;;;;16.43;100.00;98906.25;6204271;23;20027;-70
2023/08/03 05:19:54;;;;;;;4.90;4.70;;;;;;;16.80;100.00;98950.03;6199970;23;20036;-71
2023/08/03 05:22:20;;;;;;;4.90;4.70;;;;;;;16.52;100.00;98902.66;6203008;23;20079;-71
2023/08/03 05:24:46;;;;;;;9.43;5.00;;;;;;;16.82;100.00;98953.38;6150693;23;20024;-70
2023/08/03 05:27:13;;;;;;;4.70;4.50;;;;;;;16.33;100.00;98893.97;6150331;23;20041;-70
2023/08/03 05:29:43;;;;;;;4.90;4.70;;;;;;;16.78;100.00;98978.50;6178448;23;20097;-70
2023/08/03 05:32:10;;;;;;;5.00;4.80;;;;;;;16.29;100.00;98884.69;6200198;23;20020;-70
2023/08/03 05:34:37;;;;;;;4.95;4.70;;;;;;;16.64;100.00;98945.53;6171248;23;20027;-70
2023/08/03 05:37:04;;;;;;;4.90;4.70;;;;;;;15.90;100.00;98828.88;6199507;23;20453;-70
2023/08/03 05:39:30;;;;;;;4.70;4.50;;;;;;;16.46;100.00;98913.88;6200739;23;20091;-70
2023/08/03 05:41:56;;;;;;;4.97;4.78;;;;;;;16.63;100.00;98955.28;6200539;23;20076;-70
2023/08/03 05:44:23;;;;;;;5.25;4.78;;;;;;;16.63;100.00;98963.25;6173333;23;20030;-70
2023/08/03 05:46:49;;;;;;;5.28;4.88;;;;;;;16.67;100.00;99008.78;6171048;23;20012;-70
2023/08/03 05:49:16;;;;;;;4.60;4.40;;;;;;;16.22;100.00;98983.47;6199643;23;20020;-70
2023/08/03 05:51:42;;;;;;;5.03;4.82;;;;;;;16.49;100.00;99056.53;6179510;23;20049;-70
2023/08/03 05:54:17;;;;;;;5.10;4.90;;;;;;;16.34;100.00;99053.66;6202289;23;20027;-70
2023/08/03 05:56:45;;;;;;;5.30;5.00;;;;;;;16.42;100.00;99074.06;6201199;23;20012;-70
2023/08/03 05:59:18;;;;;;;4.95;4.75;;;;;;;16.31;100.00;99075.16;6203480;23;20020;-72
2023/08/03 06:01:45;;;;;;;;;;;;;;;16.26;100.00;99086.22;6198831;23;20032;-70
2023/08/03 06:04:14;;;;;;;5.10;4.80;;;;;;;16.13;100.00;99081.31;6199483;23;19909;-70
2023/08/03 06:06:41;;;;;;;5.63;5.20;;;;;;;16.18;100.00;99112.63;6160216;23;20028;-70
2023/08/03 06:09:11;;;;;;;4.90;4.70;;;;;;;15.81;100.00;99068.69;6201510;23;20093;-71
2023/08/03 06:11:38;;;;;;;5.38;4.90;;;;;;;16.06;100.00;99120.00;6166717;23;20053;-70
2023/08/03 06:14:12;;;;;;;5.20;4.90;;;;;;;16.02;100.00;99131.03;6164708;23;20029;-71
2023/08/03 06:16:39;;;;;;;5.00;4.80;;;;;;;16.03;100.00;99138.81;6195117;23;20027;-71
2023/08/03 06:19:09;;;;;;;4.95;4.75;;;;;;;15.42;100.00;99058.44;6182311;23;20013;-70
2023/08/03 06:21:35;;;;;;;4.90;4.70;;;;;;;16.02;100.00;99144.28;6198483;23;20020;-70
2023/08/03 06:24:03;;;;;;;5.55;5.25;;;;;;;16.02;100.00;99160.16;6144613;23;20088;-69
2023/08/03 06:26:34;;;;;;;5.13;4.82;;;;;;;16.09;100.00;99169.13;6203774;23;20024;-70
2023/08/03 06:29:02;;;;;;;4.70;4.50;;;;;;;15.72;100.00;99098.69;6167784;23;20096;-70
2023/08/03 06:31:38;;;;;;;5.00;4.70;;;;;;;15.92;100.00;99124.00;6200109;23;20036;-71
2023/08/03 06:34:05;;;;;;;4.95;4.68;;;;;;;15.83;100.00;99126.75;6167082;23;20079;-72
2023/08/03 06:36:32;;;;;;;4.90;4.50;;;;;;;16.21;100.00;99190.88;6177331;23;20059;-71
2023/08/03 06:38:58;;;;;;;4.78;4.57;;;;;;;16.14;100.00;99198.63;6173110;23;20661;-70
2023/08/03 06:41:25;;;;;;;5.45;4.90;;;;;;;15.74;100.00;99131.13;6202771;23;20012;-70
2023/08/03 06:43:53;;;;;;;4.90;4.70;;;;;;;15.94;100.00;99176.78;6179876;23;20109;-70
2023/08/03 06:46:20;;;;;;;5.38;4.95;;;;;;;15.85;100.00;99164.44;6144363;23;20009;-71
2023/08/03 06:48:47;;;;;;;5.22;4.93;;;;;;;16.13;100.00;99218.13;6200881;23;20028;-71
2023/08/03 06:51:13;;;;;;;4.90;4.70;;;;;;;16.12;100.00;99219.94;6197253;23;20017;-70
2023/08/03 06:53:40;;;;;;;5.07;4.78;;;;;;;15.88;100.00;99169.47;6197991;23;20559;-71
2023/08/03 06:56:07;;;;;;;5.35;4.82;;;;;;;15.96;100.00;99193.34;6149452;23;20810;-71
2023/08/03 06:58:33;;;;;;;5.10;4.80;;;;;;;16.14;100.00;99206.56;6198473;23;20024;-71
2023/08/03 07:01:00;;;;;;;5.13;4.82;;;;;;;16.32;100.00;99235.66;6168001;23;20034;-71
2023/08/03 07:03:27;;;;;;;4.95;4.75;;;;;;;16.36;100.00;99234.38;6201966;23;20053;-70
2023/08/03 07:05:53;;;;;;;5.03;4.82;;;;;;;16.32;100.00;99235.66;6179150;23;20017;-71
2023/08/03 07:08:20;;;;;;;4.95;4.75;;;;;;;16.14;100.00;99211.84;6201372;23;20024;-71
2023/08/03 07:10:46;;;;;;;5.00;4.80;;;;;;;16.11;100.00;99210.31;6196273;23;20458;-70
2023/08/03 07:13:15;;;;;;;4.75;4.55;;;;;;;16.39;100.00;99235.88;6173568;23;20835;-71
2023/08/03 07:15:41;;;;;;;5.53;5.00;;;;;;;16.49;100.00;99248.03;6198708;23;20039;-70
2023/08/03 07:18:09;;;;;;;5.07;4.88;;;;;;;16.52;100.00;99247.72;6201287;22;20016;-70
2023/08/03 07:20:36;;;;;;;4.97;4.78;;;;;;;16.19;100.00;99198.16;6201130;23;20104;-70
2023/08/03 07:23:03;;;;;;;5.00;4.80;;;;;;;16.21;100.00;99197.00;6204158;23;20510;-70
2023/08/03 07:25:32;;;;;;;4.90;4.70;;;;;;;16.87;100.00;99276.97;6204132;23;20044;-70
2023/08/03 07:27:59;;;;;;;5.00;4.80;;;;;;;16.94;100.00;99267.44;6204758;23;20032;-70
2023/08/03 07:30:25;;;;;;;5.30;5.00;;;;;;;17.00;100.00;99258.00;6167844;23;21479;-70
2023/08/03 07:32:53;;;;;;;5.32;5.13;;;;;;;16.93;100.00;99250.69;6201623;22;20050;-71
2023/08/03 07:35:19;;;;;;;5.10;4.90;;;;;;;16.42;100.00;99182.63;6154431;23;20020;-71
2023/08/03 07:37:48;;;;;;;5.20;4.90;;;;;;;16.99;100.00;99273.06;6201058;23;20027;-71
2023/08/03 07:40:14;;;;;;;5.10;4.90;;;;;;;16.67;100.00;99224.16;6178016;23;20009;-71
2023/08/03 07:42:41;;;;;;;5.40;5.10;;;;;;;16.92;100.00;99264.94;6203550;23;20032;-70
2023/08/03 07:45:09;;;;;;;5.20;5.00;;;;;;;16.74;100.00;99230.50;6176397;23;20016;-71
2023/08/03 07:47:36;;;;;;;5.30;5.00;;;;;;;16.97;100.00;99275.06;6205203;23;20517;-72
2023/08/03 07:50:03;;;;;;;5.55;5.25;;;;;;;16.61;100.00;99211.53;6184016;23;20044;-70
2023/08/03 07:52:30;;;;;;;5.30;5.00;;;;;;;17.01;100.00;99279.06;6175515;23;20459;-70
2023/08/03 07:54:56;;;;;;;5.75;5.15;;;;;;;16.93;100.00;99273.69;6201053;23;20052;-70
2023/08/03 07:57:23;;;;;;;5.15;4.95;;;;;;;16.90;100.00;99276.69;6200918;23;20032;-71
2023/08/03 07:59:50;;;;;;;5.10;4.80;;;;;;;16.94;100.00;99292.09;6203275;23;20039;-70
2023/08/03 08:02:17;;;;;;;5.07;4.80;;;;;;;16.95;100.00;99284.97;6198742;23;20028;-69
2023/08/03 08:04:47;;;;;;;4.90;4.70;;;;;;;16.95;100.00;99303.53;6173410;23;20021;-71
2023/08/03 08:07:14;;;;;;;5.00;4.80;;;;;;;16.81;100.00;99288.16;6178924;23;20071;-71
2023/08/03 08:09:40;;;;;;;5.10;4.90;;;;;;;16.85;100.00;99300.16;6151614;23;20032;-71
2023/08/03 08:12:07;;;;;;;5.40;5.10;;;;;;;16.71;100.00;99304.97;6202523;23;20078;-71
2023/08/03 08:14:34;;;;;;;5.18;4.97;;;;;;;16.98;100.00;99345.63;6201701;23;20032;-72
2023/08/03 08:17:02;;;;;;;5.30;5.00;;;;;;;16.87;100.00;99319.38;6203508;23;20262;-71
2023/08/03 08:19:39;;;;;;;5.05;4.75;;;;;;;16.94;100.00;99352.22;6205423;23;20024;-70
2023/08/03 08:22:07;;;;;;;5.18;4.90;;;;;;;16.67;100.00;99326.63;6202774;23;20032;-71
2023/08/03 08:24:42;;;;;;;5.65;5.25;;;;;;;16.74;100.00;99339.13;6198376;23;20048;-70
2023/08/03 08:27:09;;;;;;;5.10;4.90;;;;;;;16.92;100.00;99335.66;6204401;23;20072;-71
2023/08/03 08:29:37;;;;;;;5.60;5.20;;;;;;;17.47;100.00;99368.97;6196209;23;20036;-71
2023/08/03 08:32:04;;;;;;;5.20;5.00;;;;;;;17.91;100.00;99368.88;6198460;23;20777;-71
2023/08/03 08:34:30;;;;;;;5.05;4.85;;;;;;;18.24;100.00;99345.94;6172223;23;20533;-71
2023/08/03 08:36:58;;;;;;;5.88;5.47;;;;;;;18.24;100.00;99265.41;6172073;23;20028;-70
2023/08/03 08:39:25;;;;;;;5.50;5.20;;;;;;;18.46;100.00;99279.88;6199725;23;20071;-70
2023/08/03 08:41:51;;;;;;;5.47;5.20;;;;;;;18.82;100.00;99290.19;6173762;23;20706;-70
2023/08/03 08:44:20;;;;;;;5.38;5.07;;;;;;;18.69;100.00;99217.09;6181104;23;20028;-70
2023/08/03 08:46:47;;;;;;;5.10;4.90;;;;;;;19.19;100.00;99280.81;6200946;23;20019;-70
2023/08/03 08:49:14;;;;;;;5.75;5.20;;;;;;;19.17;100.00;99203.03;6200837;23;20047;-70
2023/08/03 08:51:45;;;;;;;5.60;5.30;;;;;;;19.19;100.00;99190.41;6200578;23;20075;-71
2023/08/03 08:54:15;;;;;;;5.20;5.00;;;;;;;18.99;100.00;99147.44;6196286;23;20083;-70
2023/08/03 08:56:44;;;;;;;5.40;5.10;;;;;;;19.50;100.00;99196.56;6203887;23;20016;-70
2023/08/03 08:59:13;;;;;;;5.50;5.30;;;;;;;19.82;97.83;99186.75;6199460;23;20601;-70
2023/08/03 09:01:53;;;;;;;5.30;5.10;;;;;;;20.26;95.67;99182.59;6198843;23;20078;-70
2023/08/03 09:04:27;;;;;;;5.20;5.00;;;;;;;20.29;93.20;99115.63;6182614;23;20048;-69
2023/08/03 09:06:57;;;;;;;5.30;5.10;;;;;;;20.51;86.82;99052.63;6168219;23;20097;-70
2023/08/03 09:09:31;;;;;;;5.20;5.00;;;;;;;20.22;88.38;99078.22;6171543;23;20156;-70
2023/08/03 09:11:57;;;;;;;5.43;5.13;;;;;;;19.58;90.57;99089.22;6163904;23;20050;-68
2023/08/03 09:14:24;;;;;;;5.82;5.53;;;;;;;19.78;92.52;99137.53;6198206;23;20103;-69
2023/08/03 09:16:50;;;;;;;5.72;5.30;;;;;;;19.71;90.26;99100.16;6173873;23;20043;-70
2023/08/03 09:19:39;;;;;;;5.70;5.30;;;;;;;19.46;90.27;99035.59;6177113;23;20029;-69
2023/08/03 09:22:26;;;;;;;5.70;5.40;;;;;;;20.08;89.63;99111.00;6195682;23;20028;-69
2023/08/03 09:25:07;;;;;;;5.55;5.15;;;;;;;20.47;87.00;99100.13;6142572;23;20064;-71
2023/08/03 09:27:35;;;;;;;5.55;5.25;;;;;;;20.66;85.88;99065.94;6172224;23;20081;-69
2023/08/03 09:30:05;;;;;;;5.40;5.18;;;;;;;20.53;84.45;99024.75;6171321;23;20027;-70
2023/08/03 09:32:34;;;;;;;5.20;5.00;;;;;;;20.54;83.75;99006.91;6201013;23;20093;-71
2023/08/03 09:35:02;;;;;;;5.60;5.20;;;;;;;20.53;82.40;99006.09;6149687;23;20024;-70
2023/08/03 09:37:38;;;;;;;5.60;5.30;;;;;;;20.78;82.42;99027.13;6171145;23;20031;-70
2023/08/03 09:40:08;;;;;;;5.85;5.55;;;;;;;20.48;81.00;98935.72;6196568;23;20697;-70
2023/08/03 09:42:37;;;;;;;5.60;5.32;;;;;;;20.61;81.44;98978.56;6196706;23;20112;-69
2023/08/03 09:45:06;;;;;;;5.70;5.40;;;;;;;20.20;81.26;98931.06;6183016;23;20060;-70
2023/08/03 09:47:55;;;;;;;5.63;5.30;;;;;;;20.49;82.96;99030.66;6195313;23;20791;-70
2023/08/03 09:50:23;;;;;;;5.60;5.30;;;;;;;20.49;81.44;98990.69;6199249;23;20016;-69
2023/08/03 09:52:54;;;;;;;5.85;5.53;;;;;;;20.69;80.95;98974.97;6174069;23;20085;-69
2023/08/03 09:55:27;;;;;;;5.82;5.53;;;;;;;21.10;78.32;98959.16;6197249;23;20571;-69
2023/08/03 09:58:02;;;;;;;5.60;5.30;;;;;;;21.22;78.55;98974.66;6172119;23;20021;-69
2023/08/03 10:00:29;;;;;;;5.30;5.10;;;;;;;21.07;76.71;98906.22;6197509;23;20069;-69
2023/08/03 10:03:09;;;;;;;5.40;5.20;;;;;;;21.43;76.29;98939.16;6203284;23;20040;-71
2023/08/03 10:05:43;;;;;;;5.47;5.28;;;;;;;21.67;76.32;98988.63;6199705;23;20020;-70
2023/08/03 10:08:20;;;;;;;5.97;5.60;;;;;;;21.48;74.00;98870.00;6200666;23;20072;-70
2023/08/03 10:10:48;;;;;;;5.85;5.50;;;;;;;21.40;75.23;98932.31;6200644;23;20493;-69
2023/08/03 10:13:15;;;;;;;6.03;5.35;;;;;;;21.05;75.06;98849.56;6145081;23;20107;-71
2023/08/03 10:15:42;;;;;;;5.63;5.32;;;;;;;21.09;74.35;98847.34;6168509;23;20046;-69
2023/08/03 10:18:09;;;;;;;5.75;5.45;;;;;;;21.24;75.19;98941.44;6200215;23;20028;-69
2023/08/03 10:20:38;;;;;;;5.57;5.20;;;;;;;21.06;74.30;98885.88;6199949;23;20024;-69
2023/08/03 10:23:06;;;;;;;6.18;5.68;;;;;;;21.30;74.49;98932.66;6201920;23;20040;-69
2023/08/03 10:25:33;;;;;;;5.90;5.50;;;;;;;21.38;76.69;99006.41;6174019;23;20090;-70
2023/08/03 10:28:13;;;;;;;5.55;5.32;;;;;;;21.18;75.78;98962.72;6200274;23;20819;-69
2023/08/03 10:31:12;;;;;;;5.90;5.60;;;;;;;21.17;77.50;99030.41;6174155;23;20023;-68
2023/08/03 10:33:51;;;;;;;6.15;5.55;;;;;;;21.49;77.37;99029.16;6197591;23;20032;-70
2023/08/03 10:36:30;;;;;;;5.50;5.20;;;;;;;21.34;76.57;99018.50;6165741;23;20037;-69
2023/08/03 10:38:58;;;;;;;5.50;5.15;;;;;;;21.41;76.72;99037.22;6197858;23;20024;-69
2023/08/03 10:41:27;;;;;;;5.80;5.47;;;;;;;21.86;75.35;99032.50;6200103;23;20911;-69
2023/08/03 10:44:05;;;;;;;5.68;5.38;;;;;;;22.14;73.76;99037.84;6199685;23;20091;-69
2023/08/03 10:46:39;;;;;;;8.32;5.75;;;;;;;22.35;73.31;99038.81;6189469;23;20024;-68
2023/08/03 10:49:24;;;;;;;6.45;5.60;;;;;;;22.79;70.61;99008.16;6174724;23;20016;-69
2023/08/03 10:52:13;;;;;;;6.10;5.60;;;;;;;23.12;69.25;98980.72;6190410;23;20046;-68
2023/08/03 10:54:39;;;;;;;5.90;5.50;;;;;;;23.12;69.44;98970.81;6202398;23;20567;-69
2023/08/03 10:57:26;;;;;;;5.80;5.50;;;;;;;23.07;66.24;98844.84;6205002;23;20505;-70
2023/08/03 11:00:02;;;;;;;6.53;6.15;;;;;;;22.96;67.63;98897.09;6187735;23;20601;-69
2023/08/03 11:02:30;;;;;;;5.88;5.57;;;;;;;22.69;68.81;98965.75;6166245;23;20095;-69
2023/08/03 11:05:03;;;;;;;5.97;5.60;;;;;;;22.57;68.63;98938.78;6203755;23;20036;-69
2023/08/03 11:07:44;;;;;;;5.80;5.47;;;;;;;22.33;70.57;99019.47;6198521;23;20024;-69
2023/08/03 11:10:15;;;;;;;5.78;5.47;;;;;;;22.43;70.23;99020.78;6165146;23;20021;-69
2023/08/03 11:12:44;;;;;;;6.05;5.65;;;;;;;21.82;70.60;98941.28;6178758;23;20639;-70
2023/08/03 11:15:16;;;;;;;6.28;5.97;;;;;;;21.98;71.71;99011.44;6200772;23;20352;-69
2023/08/03 11:17:47;;;;;;;6.47;6.00;;;;;;;21.90;71.36;99015.91;6207130;23;20096;-69
2023/08/03 11:20:14;;;;;;;7.95;5.63;;;;;;;21.92;71.41;99035.22;6198039;23;20102;-70
2023/08/03 11:22:41;;;;;;;6.03;5.63;;;;;;;21.89;71.63;99022.28;6203554;23;20036;-69
2023/08/03 11:25:08;;;;;;;5.70;5.40;;;;;;;21.77;71.25;99007.81;6200776;23;20031;-70
2023/08/03 11:27:35;;;;;;;6.38;5.65;;;;;;;21.69;70.97;99005.28;6205486;23;20023;-70
2023/08/03 11:30:03;;;;;;;6.15;5.75;;;;;;;21.56;70.91;98991.81;6200460;23;20076;-70
2023/08/03 11:32:31;;;;;;;6.10;5.60;;;;;;;21.74;70.73;98992.16;6170291;23;20032;-70